createdAt,value
2023-04-08T00:06:10.806Z,1505.61847
2023-04-08T00:21:12.523Z,1549.13344
2023-04-08T00:36:14.268Z,1602.87131
2023-04-08T00:51:16.047Z,1662.53151
2023-04-08T01:06:17.824Z,1698.35284
2023-04-08T01:21:19.544Z,1764.31913
2023-04-08T01:36:21.278Z,1786.66716
2023-04-08T01:51:23.002Z,1848.27636
2023-04-08T02:06:24.781Z,1889.98639
2023-04-08T02:21:26.550Z,1973.49093
2023-04-08T02:36:28.310Z,1982.24902
2023-04-08T02:51:30.050Z,1928.05805
2023-04-08T03:06:31.812Z,1915.65454
2023-04-08T03:21:33.579Z,1933.62243
2023-04-08T03:36:35.348Z,1973.49093
2023-04-08T03:51:37.102Z,2042.68343
2023-04-08T04:06:38.829Z,2036.47466
2023-04-08T04:21:40.580Z,2087.22792
2023-04-08T04:36:42.302Z,2120.25367
2023-04-08T04:51:44.019Z,2145.71708
2023-04-08T05:06:45.858Z,2180.63517
2023-04-08T05:21:47.611Z,2185.97114
2023-04-08T05:36:49.387Z,2173.56093
2023-04-08T05:51:51.079Z,2175.32518
2023-04-08T06:06:52.800Z,2187.75561
2023-04-08T06:21:54.595Z,2255.89276
2023-04-08T06:36:56.386Z,2282.79437
2023-04-08T06:51:58.139Z,2290.5988
2023-04-08T07:06:59.873Z,2229.61781
2023-04-08T07:22:01.849Z,2156.07452
2023-04-08T07:37:03.572Z,2163.03521
2023-04-08T07:52:05.317Z,2137.16159
2023-04-08T08:07:07.047Z,2168.28529
2023-04-08T08:22:08.770Z,2194.9227
2023-04-08T08:37:10.422Z,2227.76443
2023-04-08T08:52:12.153Z,2205.76182
2023-04-08T09:07:13.910Z,2222.22273
2023-04-08T09:22:15.651Z,2235.1965
2023-04-08T09:37:17.381Z,2286.68993
2023-04-08T09:52:19.136Z,2310.34534
2023-04-08T10:07:20.848Z,2310.34534
2023-04-08T10:22:22.595Z,2334.49528
2023-04-08T10:37:24.307Z,2377.99519
2023-04-08T10:52:26.256Z,2386.46534
2023-04-08T11:07:27.987Z,2431.94244
2023-04-08T11:22:29.700Z,2420.95805
2023-04-08T11:37:31.454Z,2427.53674
2023-04-08T11:52:33.224Z,2434.15128
2023-04-08T12:07:34.984Z,2388.59231
2023-04-08T12:22:36.762Z,2359.15544
2023-04-08T12:37:38.545Z,2357.08054
2023-04-08T12:52:40.238Z,2328.41059
2023-04-08T13:07:42.005Z,2326.3894
2023-04-08T13:22:43.758Z,2320.34683
2023-04-08T13:37:45.517Z,2332.46352
2023-04-08T13:52:47.267Z,2346.76058
2023-04-08T14:07:49.028Z,2355.0093
2023-04-08T14:22:50.769Z,2388.59231
2023-04-08T14:37:52.533Z,2384.34215
2023-04-08T14:52:54.323Z,2403.58795
2023-04-08T15:07:56.047Z,2423.14699
2023-04-08T15:22:57.753Z,2380.10708
2023-04-08T15:37:59.508Z,2363.31621
2023-04-08T15:53:01.297Z,2340.61186
2023-04-08T16:08:03.104Z,2275.04295
2023-04-08T16:23:04.952Z,2225.91413
2023-04-08T16:38:06.695Z,2144.0005
2023-04-08T16:53:08.447Z,2121.93241
2023-04-08T17:08:10.193Z,2108.57643
2023-04-08T17:23:11.965Z,2058.37224
2023-04-08T17:38:13.670Z,2047.3649
2023-04-08T17:53:15.402Z,1982.24902
2023-04-08T18:08:17.122Z,1825.61358
2023-04-08T18:23:18.995Z,1648.21698
2023-04-08T18:38:20.718Z,1527.06602
2023-04-08T18:53:22.543Z,1375.77053
2023-04-08T19:08:24.355Z,1169.28497
2023-04-08T19:23:26.116Z,1102.88116
2023-04-08T19:38:28.059Z,1076.30572
2023-04-08T19:53:29.737Z,1078.90549
2023-04-08T20:08:31.547Z,1093.87805
2023-04-08T20:23:33.335Z,1109.27203
2023-04-08T20:38:35.201Z,1120.40184
2023-04-08T20:53:36.992Z,1135.59372
2023-04-08T21:08:38.732Z,1154.17794
2023-04-08T21:23:40.512Z,1175.4391
2023-04-08T21:38:42.301Z,1180.61724
2023-04-08T21:53:44.224Z,1198.56938
2023-04-08T22:08:45.999Z,1203.95379
2023-04-08T22:23:47.772Z,1228.23149
2023-04-08T22:38:49.824Z,1237.30429
2023-04-08T22:53:51.770Z,1258.21647
2023-04-08T23:08:53.654Z,1260.58376
2023-04-08T23:23:55.594Z,1283.52541
2023-04-08T23:38:57.358Z,1304.77169
2023-04-08T23:53:59.089Z,1326.73318
